Time;durP1;ratioP1;P1;durP2;ratioP2;P2;SDS_P1;SDS_P2;PMS_P1;PMS_P2;Temp;Humidity;BMP_temperature;BMP_pressure;BME280_temperature;BME280_humidity;BME280_pressure;Samples;Min_cycle;Max_cycle;Signal;HPM_P1;HPM_P2
2022/12/13 00:00:18;;;;;;;37.58;15.05;;;;;;;12.18;46.00;93592.09;5056824;28;20460;-85
2022/12/13 00:02:44;;;;;;;35.20;15.50;;;;;;;12.32;45.71;93589.44;5055752;28;20033;-85
2022/12/13 00:05:10;;;;;;;35.97;16.02;;;;;;;11.02;47.80;93593.75;5055752;28;20033;-86
2022/12/13 00:07:36;;;;;;;37.00;15.93;;;;;;;11.75;47.15;93590.59;5055693;28;20036;-85
2022/12/13 00:10:02;;;;;;;34.08;14.77;;;;;;;12.37;45.70;93584.06;5056765;28;20056;-85
2022/12/13 00:12:27;;;;;;;34.65;14.05;;;;;;;11.97;45.20;93568.88;5072213;28;20147;-86
2022/12/13 00:14:53;;;;;;;40.28;15.93;;;;;;;12.19;45.38;93574.50;5055824;28;20230;-86
2022/12/13 00:17:18;;;;;;;33.20;14.02;;;;;;;12.38;45.82;93571.72;5056787;28;20430;-85
2022/12/13 00:19:45;;;;;;;29.67;13.90;;;;;;;12.80;45.20;93574.16;5056624;28;20086;-85
2022/12/13 00:22:11;;;;;;;36.95;15.98;;;;;;;12.55;44.82;93577.09;5056715;28;20037;-86
2022/12/13 00:24:36;;;;;;;39.03;17.02;;;;;;;12.66;44.72;93567.09;5055547;28;20021;-85
2022/12/13 00:27:02;;;;;;;38.63;17.60;;;;;;;12.34;44.42;93560.22;5060858;28;20468;-85
2022/12/13 00:29:28;;;;;;;40.88;17.48;;;;;;;10.99;47.11;93566.28;5059329;28;20025;-85
2022/12/13 00:31:53;;;;;;;39.75;17.05;;;;;;;10.77;47.62;93559.06;5059393;28;20040;-85
2022/12/13 00:34:18;;;;;;;44.42;18.98;;;;;;;10.87;47.44;93566.75;5060590;28;20115;-85
2022/12/13 00:36:44;;;;;;;41.75;18.02;;;;;;;11.67;45.86;93571.06;5059524;28;20036;-85
2022/12/13 00:39:12;;;;;;;39.67;17.75;;;;;;;11.91;45.69;93561.41;5060670;28;20037;-85
2022/12/13 00:41:39;;;;;;;42.33;18.40;;;;;;;11.06;47.04;93559.88;5060491;28;20039;-85
2022/12/13 00:44:04;;;;;;;38.72;17.15;;;;;;;11.90;45.57;93554.59;5058898;28;20361;-85
2022/12/13 00:46:30;;;;;;;46.90;19.50;;;;;;;12.24;45.16;93546.28;5059323;28;20033;-85
2022/12/13 00:49:21;;;;;;;42.92;19.17;;;;;;;13.28;43.87;93551.66;5060459;28;20074;-85
2022/12/13 00:51:48;;;;;;;256.92;24.98;;;;;;;12.07;45.04;93549.53;5059844;28;20825;-85
2022/12/13 00:54:14;;;;;;;239.55;29.98;;;;;;;11.72;44.79;93549.97;5059149;28;20120;-85
2022/12/13 00:56:40;;;;;;;177.95;26.40;;;;;;;10.48;48.12;93556.66;5058810;28;20029;-85
2022/12/13 00:59:05;;;;;;;143.02;22.98;;;;;;;10.86;48.49;93549.47;5059110;28;20033;-86
2022/12/13 01:01:32;;;;;;;547.75;40.35;;;;;;;10.70;48.80;93553.41;5058915;28;20032;-85
2022/12/13 01:04:00;;;;;;;424.48;33.25;;;;;;;11.26;48.14;93554.28;5075361;28;20029;-85
2022/12/13 01:06:32;;;;;;;395.95;37.60;;;;;;;10.79;49.23;93551.69;5060167;28;20033;-85
2022/12/13 01:08:58;;;;;;;132.60;22.98;;;;;;;10.39;49.74;93561.72;5059745;28;20025;-85
2022/12/13 01:11:24;;;;;;;180.88;25.95;;;;;;;10.78;48.51;93562.44;5059956;28;20449;-85
2022/12/13 01:13:49;;;;;;;70.05;22.13;;;;;;;10.88;48.02;93568.28;5058784;28;20044;-85
2022/12/13 01:16:15;;;;;;;56.97;22.40;;;;;;;11.19;48.92;93561.75;5059717;28;20070;-85
2022/12/13 01:18:40;;;;;;;53.28;21.63;;;;;;;10.13;49.73;93573.34;5058423;28;20033;-85
2022/12/13 01:21:11;;;;;;;49.20;19.70;;;;;;;11.99;48.27;93568.59;5058478;28;20166;-85
2022/12/13 01:23:37;;;;;;;48.55;20.55;;;;;;;11.67;46.68;93565.81;5063030;28;20025;-85
2022/12/13 01:26:04;;;;;;;52.72;20.88;;;;;;;10.70;49.03;93564.69;5058074;28;20186;-85
2022/12/13 01:28:33;;;;;;;57.00;21.20;;;;;;;10.92;49.74;93565.88;5066744;28;20074;-85
2022/12/13 01:31:02;;;;;;;54.58;20.85;;;;;;;12.25;47.36;93560.16;5079204;28;20056;-85
2022/12/13 01:33:36;;;;;;;50.35;21.08;;;;;;;12.84;46.11;93565.38;5077868;28;20036;-85
2022/12/13 01:36:04;;;;;;;64.28;22.35;;;;;;;11.64;47.87;93560.38;5074885;28;20334;-86
2022/12/13 01:38:29;;;;;;;47.53;20.15;;;;;;;12.31;46.89;93545.88;5078415;28;20036;-85
2022/12/13 01:40:58;;;;;;;80.32;22.70;;;;;;;11.55;47.54;93545.34;5079396;28;20111;-85
2022/12/13 01:43:30;;;;;;;60.47;22.90;;;;;;;12.30;46.28;93550.31;5061947;28;20166;-85
2022/12/13 01:45:56;;;;;;;49.65;21.20;;;;;;;12.32;46.09;93549.25;5078315;28;20028;-85
2022/12/13 01:48:28;;;;;;;65.55;20.10;;;;;;;13.04;45.14;93544.88;5061133;28;20032;-85
2022/12/13 01:50:58;;;;;;;57.05;18.75;;;;;;;12.99;45.15;93542.41;5078151;28;20036;-85
2022/12/13 01:53:26;;;;;;;42.25;18.75;;;;;;;13.06;45.06;93545.38;5077898;28;20060;-85
2022/12/13 01:55:56;;;;;;;52.38;18.50;;;;;;;13.08;44.79;93537.19;5078622;28;20057;-85
2022/12/13 01:58:22;;;;;;;48.53;18.20;;;;;;;12.90;44.65;93536.31;5078064;28;20036;-85
2022/12/13 02:00:48;;;;;;;64.85;20.30;;;;;;;12.96;44.33;93535.13;5077543;28;20082;-85
2022/12/13 02:03:15;;;;;;;226.90;25.77;;;;;;;13.05;45.34;93546.44;5079134;28;20406;-85
2022/12/13 02:05:49;;;;;;;159.32;20.88;;;;;;;12.47;46.15;93538.38;5079112;28;20128;-85
2022/12/13 02:08:15;;;;;;;100.65;20.52;;;;;;;12.57;45.52;93540.78;5077574;28;20025;-85
2022/12/13 02:10:42;;;;;;;39.97;17.40;;;;;;;12.84;45.52;93533.81;5078894;28;20032;-85
2022/12/13 02:13:08;;;;;;;43.22;19.23;;;;;;;12.72;45.75;93523.88;5077691;28;20037;-85
2022/12/13 02:16:02;;;;;;;46.70;20.50;;;;;;;13.37;44.40;93531.41;5077319;28;20040;-85
2022/12/13 02:18:55;;;;;;;60.92;19.05;;;;;;;12.93;44.16;93522.59;5076099;28;20095;-85
2022/12/13 02:22:05;;;;;;;60.67;19.80;;;;;;;13.13;45.21;93532.56;5078376;28;20035;-85
2022/12/13 02:24:44;;;;;;;83.15;18.35;;;;;;;12.82;45.14;93528.09;5077506;28;20039;-85
2022/12/13 02:27:20;;;;;;;365.65;31.05;;;;;;;12.26;46.33;93514.44;5077541;28;20032;-85
2022/12/13 02:30:21;;;;;;;898.67;71.03;;;;;;;10.77;49.48;93524.22;5077240;28;20040;-85
2022/12/13 02:33:02;;;;;;;775.33;60.45;;;;;;;10.26;50.88;93519.50;5077298;28;20028;-85
2022/12/13 02:35:36;;;;;;;966.05;75.97;;;;;;;10.06;51.12;93528.44;5078544;28;20036;-85
2022/12/13 02:38:26;;;;;;;135.32;21.15;;;;;;;12.06;47.99;93523.59;5076975;28;20077;-85
2022/12/13 02:41:12;;;;;;;444.25;31.35;;;;;;;11.62;48.02;93526.56;5078022;28;20035;-86
2022/12/13 02:43:52;;;;;;;380.67;35.33;;;;;;;11.46;48.43;93524.25;5076826;28;20020;-85
2022/12/13 02:46:20;;;;;;;299.27;28.00;;;;;;;11.35;49.47;93517.66;5078243;28;20032;-86
2022/12/13 02:48:47;;;;;;;504.80;39.53;;;;;;;11.03;49.69;93524.53;5076461;28;20085;-86
2022/12/13 02:51:13;;;;;;;340.90;29.67;;;;;;;10.94;49.75;93536.78;5076835;28;20142;-85
2022/12/13 02:53:39;;;;;;;277.77;30.63;;;;;;;11.25;48.95;93538.84;5076481;28;20097;-85
2022/12/13 02:56:05;;;;;;;105.97;21.95;;;;;;;11.64;47.90;93531.50;5076826;28;20036;-85
2022/12/13 02:58:37;;;;;;;147.13;24.58;;;;;;;11.53;47.94;93525.72;5076798;28;20394;-85
2022/12/13 03:01:08;;;;;;;395.98;37.08;;;;;;;11.02;49.59;93526.41;5059924;28;20075;-86
2022/12/13 03:04:02;;;;;;;242.55;28.13;;;;;;;11.59;49.64;93511.41;5077679;28;20111;-85
2022/12/13 03:06:31;;;;;;;;;;;;;;;12.69;47.46;93506.06;5078348;28;20032;-85
2022/12/13 03:09:38;;;;;;;311.08;30.58;;;;;;;12.04;47.95;93487.13;5077732;28;19915;-85
2022/12/13 03:15:09;;;;;;;486.65;35.00;;;;;;;11.50;48.14;93471.22;5076454;28;20086;-85
2022/12/13 03:17:42;;;;;;;864.38;60.40;;;;;;;11.18;49.14;93490.16;5077674;28;20094;-85
2022/12/13 03:20:08;;;;;;;429.48;35.60;;;;;;;11.46;48.77;93492.75;5059278;28;20129;-86
2022/12/13 03:22:33;;;;;;;545.45;33.67;;;;;;;11.67;47.96;93487.09;5076399;28;20036;-85
2022/12/13 03:24:59;;;;;;;744.17;57.38;;;;;;;11.15;48.11;93498.63;5077223;28;20024;-85
2022/12/13 03:27:24;;;;;;;572.60;44.50;;;;;;;10.14;50.59;93492.97;5076318;28;20495;-85
2022/12/13 03:29:50;;;;;;;109.30;24.60;;;;;;;11.43;49.34;93484.72;5076200;28;20055;-86
2022/12/13 03:32:15;;;;;;;67.68;22.55;;;;;;;11.74;48.08;93492.72;5076239;28;20035;-85
2022/12/13 03:34:41;;;;;;;59.90;22.73;;;;;;;12.05;47.68;93487.88;5077262;28;20380;-85
2022/12/13 03:37:06;;;;;;;53.40;21.92;;;;;;;12.17;47.39;93493.38;5077357;28;20446;-85
2022/12/13 03:39:32;;;;;;;119.32;22.85;;;;;;;11.95;47.25;93492.28;5075803;28;20036;-85
2022/12/13 03:41:57;;;;;;;239.00;30.23;;;;;;;11.10;47.54;93498.72;5076009;28;20385;-85
2022/12/13 03:44:22;;;;;;;178.30;28.65;;;;;;;11.15;49.24;93496.00;5075911;28;20043;-85
2022/12/13 03:46:48;;;;;;;506.27;42.40;;;;;;;10.77;49.25;93490.94;5077138;28;20469;-84
2022/12/13 03:49:13;;;;;;;157.23;25.67;;;;;;;11.60;48.91;93499.84;5077175;28;20036;-85
2022/12/13 03:51:39;;;;;;;86.40;24.42;;;;;;;12.09;48.03;93497.50;5076942;28;20442;-85
2022/12/13 03:54:04;;;;;;;343.25;29.25;;;;;;;11.36;46.96;93502.69;5064633;28;20037;-85
2022/12/13 03:56:29;;;;;;;100.93;22.23;;;;;;;11.70;48.61;93497.00;5067756;28;20492;-85
2022/12/13 03:58:55;;;;;;;51.20;22.60;;;;;;;11.80;48.13;93495.25;5071475;28;20354;-85
2022/12/13 04:01:22;;;;;;;55.17;20.40;;;;;;;12.18;46.64;93492.31;5056269;28;20040;-85
2022/12/13 04:03:47;;;;;;;125.30;21.13;;;;;;;11.99;47.33;93495.84;5055839;28;20331;-85
2022/12/13 04:06:13;;;;;;;360.45;28.73;;;;;;;11.95;45.96;93502.78;5056885;28;20039;-85
2022/12/13 04:09:14;;;;;;;119.88;22.45;;;;;;;12.63;46.70;93498.63;5055707;28;20115;-85
2022/12/13 04:14:23;;;;;;;50.40;19.48;;;;;;;12.00;46.07;93489.53;5055433;28;20043;-85
2022/12/13 04:16:50;;;;;;;45.83;20.48;;;;;;;12.44;47.10;93496.97;5056532;28;20036;-85
2022/12/13 04:19:18;;;;;;;70.38;20.30;;;;;;;12.79;46.75;93496.38;5055644;28;20059;-85
2022/12/13 04:21:43;;;;;;;416.13;34.63;;;;;;;11.64;46.58;93486.91;5056616;28;20024;-85
2022/12/13 04:24:09;;;;;;;326.08;30.85;;;;;;;10.82;49.26;93490.06;5055574;28;20021;-85
2022/12/13 04:26:34;;;;;;;222.35;27.52;;;;;;;10.87;49.33;93488.13;5056683;28;20098;-85
2022/12/13 04:28:59;;;;;;;59.65;23.25;;;;;;;12.04;47.99;93491.59;5056736;28;20048;-85
2022/12/13 04:31:25;;;;;;;361.10;32.65;;;;;;;11.08;48.77;93498.25;5056554;28;20033;-85
2022/12/13 04:33:50;;;;;;;73.80;22.38;;;;;;;12.02;47.26;93494.53;5056248;28;20033;-85
2022/12/13 04:36:18;;;;;;;242.98;29.60;;;;;;;11.23;46.98;93489.28;5056540;28;20033;-86
2022/12/13 04:38:45;;;;;;;514.92;42.53;;;;;;;10.70;49.32;93485.28;5056587;28;20029;-85
2022/12/13 04:41:16;;;;;;;58.33;22.73;;;;;;;12.38;47.52;93487.66;5054965;28;20021;-85
2022/12/13 04:43:42;;;;;;;587.63;40.38;;;;;;;11.11;48.81;93492.41;5059017;28;20028;-85
2022/12/13 04:46:08;;;;;;;160.32;25.17;;;;;;;11.59;48.38;93485.97;5075352;28;20039;-85
2022/12/13 04:48:33;;;;;;;302.92;31.20;;;;;;;10.93;48.00;93495.91;5076446;28;20039;-85
2022/12/13 04:51:00;;;;;;;543.47;46.15;;;;;;;10.39;50.56;93488.41;5075956;28;20104;-85
2022/12/13 04:53:25;;;;;;;230.73;26.98;;;;;;;11.39;48.35;93508.13;5074872;28;20033;-85
2022/12/13 04:55:51;;;;;;;116.47;23.70;;;;;;;11.29;48.00;93501.25;5076394;28;20086;-85
2022/12/13 04:58:17;;;;;;;73.50;23.00;;;;;;;11.64;47.87;93492.94;5076191;28;20495;-85
2022/12/13 05:00:42;;;;;;;64.47;22.38;;;;;;;11.86;47.80;93501.91;5074727;28;20119;-85
2022/12/13 05:03:08;;;;;;;71.32;24.02;;;;;;;12.06;47.23;93500.72;5074922;28;20392;-85
2022/12/13 05:05:33;;;;;;;117.70;22.83;;;;;;;11.99;46.31;93503.72;5076069;28;20028;-85
2022/12/13 05:07:58;;;;;;;492.08;38.03;;;;;;;11.00;48.36;93494.47;5076081;28;20118;-85
2022/12/13 05:10:24;;;;;;;50.28;20.40;;;;;;;11.94;47.06;93495.19;5076300;28;20028;-85
2022/12/13 05:12:49;;;;;;;155.55;24.60;;;;;;;11.48;47.49;93489.06;5079563;28;20334;-85
2022/12/13 05:15:15;;;;;;;50.55;20.23;;;;;;;12.34;46.72;93476.97;5079558;28;20434;-85
2022/12/13 05:17:40;;;;;;;47.90;19.38;;;;;;;12.46;46.25;93481.66;5079986;28;20070;-85
2022/12/13 05:20:06;;;;;;;360.52;30.42;;;;;;;12.50;45.55;93480.00;5079883;28;20043;-86
2022/12/13 05:22:31;;;;;;;139.40;23.80;;;;;;;12.18;46.22;93478.41;5079954;28;20357;-85
2022/12/13 05:24:57;;;;;;;754.55;52.17;;;;;;;11.04;47.98;93471.03;5078258;28;20058;-86
2022/12/13 05:27:22;;;;;;;55.03;18.45;;;;;;;11.55;48.31;93481.59;5079537;28;20030;-87
2022/12/13 05:29:48;;;;;;;310.05;24.42;;;;;;;11.21;48.88;93485.44;5078698;28;20128;-86
2022/12/13 05:32:14;;;;;;;604.13;42.28;;;;;;;10.66;49.41;93482.47;5078213;28;20453;-86
2022/12/13 05:34:39;;;;;;;747.83;52.97;;;;;;;10.93;50.00;93474.94;5079607;28;20040;-86
2022/12/13 05:37:05;;;;;;;337.92;25.77;;;;;;;11.68;48.53;93478.16;5079262;28;20422;-86
2022/12/13 05:39:30;;;;;;;73.93;20.00;;;;;;;12.00;48.10;93473.78;5079341;28;20067;-86
2022/12/13 05:41:57;;;;;;;48.90;19.13;;;;;;;12.43;46.20;93477.03;5079046;28;20343;-85
2022/12/13 05:44:23;;;;;;;73.85;21.35;;;;;;;12.10;46.93;93474.66;5077997;28;20036;-85
2022/12/13 05:46:48;;;;;;;50.90;19.33;;;;;;;12.31;47.07;93472.31;5063429;28;20500;-84
2022/12/13 05:49:13;;;;;;;432.73;34.47;;;;;;;11.17;47.52;93467.63;5067220;28;20047;-85
2022/12/13 05:51:39;;;;;;;500.35;34.72;;;;;;;11.01;47.55;93469.81;5079037;28;20123;-85
2022/12/13 05:54:04;;;;;;;60.72;17.38;;;;;;;11.88;47.80;93469.06;5079032;28;20037;-84
2022/12/13 05:56:30;;;;;;;233.65;25.92;;;;;;;11.02;48.24;93467.94;5077658;28;20166;-85
2022/12/13 05:59:00;;;;;;;46.90;17.15;;;;;;;12.33;47.13;93472.00;5078839;28;20035;-85
2022/12/13 06:01:26;;;;;;;50.28;18.58;;;;;;;11.76;47.36;93454.91;5077559;28;20464;-84
2022/12/13 06:03:51;;;;;;;43.92;17.98;;;;;;;11.44;49.30;93446.94;5079059;28;20063;-85
2022/12/13 06:06:17;;;;;;;55.42;20.67;;;;;;;10.86;48.78;93444.66;5077645;28;20032;-85
2022/12/13 06:08:42;;;;;;;88.55;18.77;;;;;;;10.65;49.42;93448.72;5079049;28;20036;-85
2022/12/13 06:11:08;;;;;;;46.28;17.70;;;;;;;11.50;48.41;93452.84;5078536;28;20040;-85
2022/12/13 06:13:33;;;;;;;57.25;19.48;;;;;;;11.28;47.98;93452.50;5078826;28;20436;-86
2022/12/13 06:16:03;;;;;;;51.22;18.40;;;;;;;10.41;49.49;93450.44;5078806;28;20055;-86
2022/12/13 06:18:31;;;;;;;52.42;20.52;;;;;;;10.16;50.46;93455.00;5077604;28;20032;-86
2022/12/13 06:20:57;;;;;;;59.03;20.77;;;;;;;10.35;50.79;93456.03;5078649;28;20039;-85
2022/12/13 06:23:23;;;;;;;113.13;25.92;;;;;;;10.33;50.61;93456.28;5076659;28;20434;-86
2022/12/13 06:25:49;;;;;;;47.58;18.02;;;;;;;11.11;49.09;93466.19;5078732;28;20041;-85
2022/12/13 06:28:14;;;;;;;49.92;18.30;;;;;;;11.57;47.55;93471.56;5077488;28;20099;-85
2022/12/13 06:30:39;;;;;;;49.92;18.80;;;;;;;11.88;47.00;93465.66;5078445;28;20036;-85
2022/12/13 06:33:05;;;;;;;51.03;18.42;;;;;;;11.26;47.28;93478.25;5078501;28;20037;-85
2022/12/13 06:35:30;;;;;;;46.95;17.55;;;;;;;11.91;47.19;93474.78;5078501;28;20036;-85
2022/12/13 06:37:56;;;;;;;48.67;17.73;;;;;;;11.88;47.75;93476.16;5078432;28;20040;-86
2022/12/13 06:40:22;;;;;;;46.20;17.40;;;;;;;11.33;47.96;93480.44;5076748;28;20039;-85
2022/12/13 06:42:47;;;;;;;46.15;19.25;;;;;;;11.38;47.95;93500.56;5078423;28;20036;-85
2022/12/13 06:45:13;;;;;;;45.22;17.75;;;;;;;11.22;47.49;93498.22;5076798;28;20047;-85
2022/12/13 06:47:38;;;;;;;40.95;16.10;;;;;;;11.89;47.40;93503.94;5076862;28;20362;-86
2022/12/13 06:50:04;;;;;;;44.85;16.98;;;;;;;12.36;46.45;93495.06;5078110;28;20047;-85
2022/12/13 06:52:30;;;;;;;41.63;17.23;;;;;;;12.14;44.92;93496.59;5078386;28;20044;-85
2022/12/13 06:54:56;;;;;;;43.05;17.65;;;;;;;12.24;46.41;93493.75;5076830;28;20434;-85
2022/12/13 06:57:21;;;;;;;42.13;17.77;;;;;;;12.29;46.02;93495.50;5078039;28;20040;-85
2022/12/13 06:59:47;;;;;;;54.13;19.77;;;;;;;11.88;45.72;93487.44;5077901;28;20075;-85
2022/12/13 07:02:12;;;;;;;45.25;18.25;;;;;;;11.86;47.22;93488.81;5077629;28;20032;-85
2022/12/13 07:04:37;;;;;;;49.10;17.23;;;;;;;11.20;47.81;93497.75;5077674;28;20025;-86
2022/12/13 07:07:03;;;;;;;53.60;19.15;;;;;;;10.96;47.97;93498.72;5076686;28;20040;-86
2022/12/13 07:09:29;;;;;;;45.00;17.70;;;;;;;11.66;47.96;93496.06;5077830;28;20040;-85
2022/12/13 07:11:55;;;;;;;48.92;16.92;;;;;;;11.67;46.76;93496.81;5076497;28;20093;-86
2022/12/13 07:14:21;;;;;;;45.30;16.80;;;;;;;11.85;46.79;93508.25;5077725;28;20120;-85
2022/12/13 07:16:46;;;;;;;44.65;16.75;;;;;;;11.60;47.26;93497.22;5076526;28;20037;-85
2022/12/13 07:19:11;;;;;;;50.13;16.33;;;;;;;11.41;47.65;93507.84;5077666;28;20043;-85
2022/12/13 07:21:38;;;;;;;40.40;16.45;;;;;;;11.37;48.15;93504.25;5077488;28;20040;-85
2022/12/13 07:24:04;;;;;;;45.15;17.35;;;;;;;12.05;47.20;93501.81;5076437;28;20121;-85
2022/12/13 07:26:30;;;;;;;39.53;15.00;;;;;;;11.64;47.88;93508.69;5077825;28;20040;-85
2022/12/13 07:28:55;;;;;;;46.20;14.90;;;;;;;10.17;49.54;93515.97;5077497;28;20060;-85
2022/12/13 07:31:22;;;;;;;37.92;14.35;;;;;;;11.41;48.09;93515.72;5076210;28;20343;-85
2022/12/13 07:33:48;;;;;;;44.72;16.50;;;;;;;10.88;48.15;93520.38;5075910;28;20119;-85
2022/12/13 07:36:18;;;;;;;37.67;14.90;;;;;;;12.23;47.15;93521.09;5075842;28;20123;-85
2022/12/13 07:39:03;;;;;;;42.72;15.10;;;;;;;11.84;47.31;93517.19;5076202;28;20044;-85
2022/12/13 07:41:28;;;;;;;36.08;14.18;;;;;;;11.30;46.80;93523.00;5077168;28;20040;-85
2022/12/13 07:43:54;;;;;;;37.55;14.02;;;;;;;10.99;47.43;93515.69;5075737;28;20067;-85
2022/12/13 07:46:20;;;;;;;43.58;14.75;;;;;;;10.73;49.05;93518.78;5076011;28;20043;-85
2022/12/13 07:48:45;;;;;;;42.40;15.52;;;;;;;11.06;47.53;93517.94;5075677;28;20036;-85
2022/12/13 07:51:11;;;;;;;38.10;14.52;;;;;;;11.79;47.45;93504.19;5077074;28;20036;-85
2022/12/13 07:53:38;;;;;;;57.08;14.82;;;;;;;11.06;48.82;93504.84;5075441;28;20032;-85
2022/12/13 07:56:05;;;;;;;36.13;14.02;;;;;;;12.06;47.49;93524.34;5075972;28;20065;-85
2022/12/13 07:58:32;;;;;;;36.08;14.98;;;;;;;11.50;47.87;93532.31;5077075;28;20036;-85
2022/12/13 08:01:06;;;;;;;80.88;16.05;;;;;;;11.64;49.26;93534.13;5076979;28;20060;-85
2022/12/13 08:03:32;;;;;;;31.85;13.65;;;;;;;11.82;47.56;93535.09;5075882;28;20036;-85
2022/12/13 08:06:10;;;;;;;238.00;21.52;;;;;;;10.40;50.06;93534.47;5075827;28;20499;-86
2022/12/13 08:08:56;;;;;;;41.22;14.27;;;;;;;11.55;48.23;93531.44;5058982;28;20029;-85
2022/12/13 08:11:21;;;;;;;226.27;21.60;;;;;;;10.58;50.56;93544.16;5075448;28;20392;-85
2022/12/13 08:13:48;;;;;;;73.82;14.88;;;;;;;11.56;48.24;93544.25;5076802;28;20036;-85
2022/12/13 08:16:16;;;;;;;51.63;15.65;;;;;;;11.23;48.24;93549.59;5076891;28;20037;-85
2022/12/13 08:18:43;;;;;;;37.00;14.60;;;;;;;11.81;47.91;93546.66;5075728;28;20102;-86
2022/12/13 08:21:09;;;;;;;46.63;14.40;;;;;;;11.81;48.35;93544.78;5076596;28;20032;-85
2022/12/13 08:23:35;;;;;;;38.08;14.02;;;;;;;12.00;45.79;93536.03;5075631;28;20467;-85
2022/12/13 08:26:01;;;;;;;32.45;14.30;;;;;;;12.36;46.77;93540.47;5062673;28;20044;-85
2022/12/13 08:28:28;;;;;;;35.40;14.15;;;;;;;12.41;45.64;93548.25;5056735;28;20147;-85
2022/12/13 08:30:54;;;;;;;148.60;19.77;;;;;;;11.88;46.65;93544.38;5055399;28;20492;-85
2022/12/13 08:33:19;;;;;;;34.83;15.13;;;;;;;12.37;46.66;93549.16;5055351;28;20033;-85
2022/12/13 08:35:45;;;;;;;38.00;15.43;;;;;;;12.34;46.95;93549.72;5056604;28;20083;-86
2022/12/13 08:38:11;;;;;;;35.75;14.57;;;;;;;12.18;46.68;93544.06;5055417;28;20043;-85
2022/12/13 08:40:37;;;;;;;134.75;16.98;;;;;;;11.66;45.98;93558.22;5055327;28;20040;-85
2022/12/13 08:43:03;;;;;;;140.75;18.05;;;;;;;11.65;46.43;93557.47;5055189;28;20045;-85
2022/12/13 08:45:32;;;;;;;44.15;14.80;;;;;;;11.87;47.21;93563.84;5055386;28;20037;-85
2022/12/13 08:47:58;;;;;;;82.82;15.80;;;;;;;11.44;47.35;93562.34;5059426;28;20036;-85
2022/12/13 08:50:24;;;;;;;29.90;13.68;;;;;;;11.17;48.42;93559.41;5059154;28;20123;-85
2022/12/13 08:52:50;;;;;;;39.25;14.68;;;;;;;11.77;47.85;93566.69;5060229;28;20040;-85
2022/12/13 08:55:15;;;;;;;29.23;13.60;;;;;;;11.93;45.89;93560.06;5060416;28;20032;-85
2022/12/13 08:57:42;;;;;;;31.70;13.60;;;;;;;12.00;46.75;93557.03;5042136;28;20031;-85
2022/12/13 09:00:10;;;;;;;31.58;13.63;;;;;;;12.19;47.01;93564.00;5058724;28;20033;-85
2022/12/13 09:02:36;;;;;;;32.92;14.13;;;;;;;11.82;47.16;93564.72;5060302;28;20044;-85
2022/12/13 09:05:02;;;;;;;34.03;15.15;;;;;;;11.97;47.16;93583.84;5058683;28;20029;-85
2022/12/13 09:07:28;;;;;;;32.25;13.93;;;;;;;12.06;47.28;93568.22;5060213;28;20037;-85
2022/12/13 09:09:53;;;;;;;32.30;14.18;;;;;;;12.38;46.22;93582.22;5058586;28;20047;-85
2022/12/13 09:12:19;;;;;;;32.85;14.57;;;;;;;12.58;45.99;93581.75;5060061;28;20037;-85
2022/12/13 09:14:45;;;;;;;35.33;14.77;;;;;;;12.67;45.79;93578.41;5060006;28;20039;-85
2022/12/13 09:17:11;;;;;;;70.75;14.80;;;;;;;11.67;45.82;93576.31;5058867;28;20116;-85
2022/12/13 09:19:36;;;;;;;34.05;15.27;;;;;;;12.31;45.63;93577.38;5058783;28;20024;-85
2022/12/13 09:22:02;;;;;;;36.90;15.65;;;;;;;12.35;46.04;93573.09;5059857;28;20029;-85
2022/12/13 09:24:27;;;;;;;33.58;15.40;;;;;;;11.83;47.62;93581.25;5059926;28;20339;-85
2022/12/13 09:26:53;;;;;;;34.65;15.30;;;;;;;12.53;45.85;93583.72;5059794;28;20183;-85
2022/12/13 09:29:18;;;;;;;34.05;14.85;;;;;;;12.52;45.36;93585.56;5059810;28;20033;-86
2022/12/13 09:31:44;;;;;;;39.15;15.05;;;;;;;12.28;44.59;93584.00;5059659;28;20040;-85
2022/12/13 09:34:10;;;;;;;34.47;16.10;;;;;;;12.68;46.20;93587.84;5058031;28;20047;-85
2022/12/13 09:36:36;;;;;;;38.03;16.90;;;;;;;12.59;46.12;93583.28;5058468;28;20123;-85
2022/12/13 09:39:02;;;;;;;36.60;16.42;;;;;;;12.24;46.55;93585.66;5059592;28;20033;-85
2022/12/13 09:41:31;;;;;;;37.20;15.73;;;;;;;12.14;46.74;93583.25;5058027;28;20079;-85
2022/12/13 09:44:27;;;;;;;32.80;14.40;;;;;;;12.70;46.11;93594.38;5058326;28;20434;-85
2022/12/13 09:46:53;;;;;;;31.48;14.82;;;;;;;12.29;47.27;93576.91;5054582;28;20048;-85
2022/12/13 09:49:38;;;;;;;35.20;15.43;;;;;;;12.83;46.07;93582.22;5058295;28;20048;-85
2022/12/13 09:52:05;;;;;;;39.58;17.45;;;;;;;12.16;47.04;93581.91;5057733;28;20358;-86
2022/12/13 09:54:32;;;;;;;40.95;17.83;;;;;;;10.85;48.70;93583.84;5059239;28;20033;-85
2022/12/13 09:56:58;;;;;;;42.35;18.50;;;;;;;12.02;46.67;93589.03;5058338;28;20750;-86
2022/12/13 09:59:30;;;;;;;41.83;18.58;;;;;;;12.45;47.05;93582.56;5056927;28;20072;-86
2022/12/13 10:01:56;;;;;;;37.33;17.75;;;;;;;12.02;46.86;93584.53;5057552;28;20459;-85
2022/12/13 10:04:22;;;;;;;40.25;18.92;;;;;;;10.96;48.96;93594.91;5057971;28;20464;-85
2022/12/13 10:06:52;;;;;;;42.35;19.13;;;;;;;12.38;47.76;93587.47;5057876;28;20075;-85
2022/12/13 10:09:18;;;;;;;41.10;19.17;;;;;;;12.18;47.28;93580.81;5057561;28;20458;-86
2022/12/13 10:11:53;;;;;;;37.30;17.67;;;;;;;12.56;45.75;93591.78;5057422;28;20029;-86
2022/12/13 10:14:26;;;;;;;45.30;20.38;;;;;;;10.56;50.75;93588.19;5058924;28;20037;-85
2022/12/13 10:16:56;;;;;;;48.30;20.75;;;;;;;11.26;50.10;93592.81;5057458;28;20033;-85
2022/12/13 10:19:42;;;;;;;41.97;19.67;;;;;;;12.44;46.88;93583.66;5057753;28;20167;-85
2022/12/13 10:22:12;;;;;;;47.25;21.15;;;;;;;12.20;47.42;93584.72;5057358;28;20029;-85
2022/12/13 10:24:49;;;;;;;43.63;20.60;;;;;;;12.83;45.28;93584.84;5057633;28;20162;-85
2022/12/13 10:27:42;;;;;;;45.72;21.63;;;;;;;12.82;46.24;93583.31;5058616;28;20087;-85
2022/12/13 10:30:09;;;;;;;48.80;21.93;;;;;;;11.83;47.97;93578.63;5052951;28;20135;-85
2022/12/13 10:32:57;;;;;;;51.75;22.83;;;;;;;10.74;50.03;93588.44;5058632;28;20037;-86
2022/12/13 10:35:29;;;;;;;51.80;23.77;;;;;;;11.34;49.35;93583.50;5057349;28;20032;-85
2022/12/13 10:37:56;;;;;;;50.60;22.88;;;;;;;10.90;50.08;93596.84;5057362;28;20116;-85
2022/12/13 10:40:29;;;;;;;52.40;24.27;;;;;;;10.36;51.36;93591.88;5057213;28;20083;-85
2022/12/13 10:43:14;;;;;;;64.45;29.10;;;;;;;11.74;47.15;93592.44;5056942;28;20044;-86
2022/12/13 10:45:41;;;;;;;57.30;26.90;;;;;;;10.07;50.54;93587.56;5057146;28;20032;-85
2022/12/13 10:48:19;;;;;;;61.47;26.85;;;;;;;9.38;51.52;93578.19;5057057;28;20136;-85
2022/12/13 10:50:55;;;;;;;61.55;27.40;;;;;;;9.43;52.32;93569.53;5056707;28;20025;-85
2022/12/13 10:53:20;;;;;;;58.35;26.98;;;;;;;9.69;51.66;93546.44;5058100;28;20446;-85
2022/12/13 10:55:53;;;;;;;59.67;27.95;;;;;;;10.99;49.82;93552.41;5058132;28;20067;-85
2022/12/13 10:58:19;;;;;;;;;;;;;;;11.20;49.29;93552.03;5057348;28;20033;-85
2022/12/13 11:00:47;;;;;;;63.78;27.17;;;;;;;10.61;49.55;93553.28;5057640;28;19909;-85
2022/12/13 11:03:28;;;;;;;58.17;25.60;;;;;;;11.58;48.57;93565.72;5058068;28;20021;-85
2022/12/13 11:06:15;;;;;;;52.25;22.60;;;;;;;12.30;47.16;93563.47;5056488;28;20029;-85
2022/12/13 11:08:40;;;;;;;55.58;24.58;;;;;;;11.87;47.57;93556.75;5057487;28;20060;-85
2022/12/13 11:11:08;;;;;;;56.00;24.20;;;;;;;12.20;45.70;93565.53;5056231;28;20417;-85
2022/12/13 11:13:44;;;;;;;52.08;22.98;;;;;;;12.69;44.71;93553.38;5039895;28;20040;-85
2022/12/13 11:16:33;;;;;;;52.50;23.73;;;;;;;11.92;46.62;93550.63;5056613;28;20465;-85
2022/12/13 11:19:05;;;;;;;51.00;21.98;;;;;;;12.22;47.08;93556.31;5056305;28;20384;-85
2022/12/13 11:21:33;;;;;;;52.53;23.67;;;;;;;11.18;48.48;93558.34;5057473;28;20098;-85
2022/12/13 11:24:01;;;;;;;53.33;24.35;;;;;;;11.08;48.88;93563.78;5056456;28;20427;-85
2022/12/13 11:26:28;;;;;;;54.28;23.65;;;;;;;11.20;49.52;93568.53;5056426;28;20074;-86
2022/12/13 11:29:15;;;;;;;53.17;24.65;;;;;;;12.14;47.66;93557.00;5056338;28;20032;-85